Flight Track Log - Related Links

Times and Time Zones

All times are in EDT time to prevent confusion due to time zone crossing. See the SWA216 flight status page for this flight to view local times or setup timezone preferences in your user account.

Time Position Orientation Groundspeed Altitude Reporting Facility
EDT Latitude Longitude Course Direction KTS MPH feet Rate Location/Type
Sat 10:33:21 AM 39.1833 -76.7333 122° Southeast 184 212 2,300  Level Potomac TRACON
Sat 10:35:27 AM 39.1361 -76.6353 122° Southeast 152 175 8,700 2,777 Climbing Washington Center
Sat 10:36:29 AM 39.1389 -76.5308 88° East 216 249 11,000 2,902 Climbing Washington Center
Sat 10:37:29 AM 39.1419 -76.4292 88° East 256 295 14,600 2,874 Climbing Washington Center
Sat 10:38:28 AM 39.1467 -76.3142 87° East 292 336 16,700 2,218 Climbing Washington Center
Sat 10:39:28 AM 39.1558 -76.1778 85° East 331 381 19,000 2,182 Climbing Washington Center
Sat 10:40:29 AM 39.1731 -76.0467 80° East 381 438 21,100 2,319 Climbing Washington Center
Sat 10:41:27 AM 39.1944 -75.8969 80° East 404 465 23,600 2,390 Climbing Washington Center
Sat 10:42:27 AM 39.2675 -75.7819 51° Northeast 399 459 25,800 2,132 Climbing Washington Center
Sat 10:43:28 AM 39.3531 -75.6747 44° Northeast 404 465 27,900 2,066 Climbing Washington Center
Sat 10:44:29 AM 39.4386 -75.5619 45° Northeast 421 484 30,000 2,033 Climbing Washington Center
Sat 10:45:29 AM 39.5258 -75.4489 45° Northeast 431 496 32,000 1,500 Climbing Washington Center
Sat 10:46:29 AM 39.6133 -75.3356 45° Northeast 431 496 33,000 508 Climbing Washington Center
Sat 10:47:27 AM 39.6964 -75.2219 46° Northeast 431 496 33,000  Level Washington Center
Sat 10:48:16 AM 39.7731 -75.1114 48° Northeast 437 503 33,000  Level New York Center
Sat 10:49:18 AM 39.8456 -75.0078 48° Northeast 443 510 33,000  Level New York Center
Sat 10:50:18 AM 39.9292 -74.8856 48° Northeast 448 516 33,000  Level New York Center
Sat 10:51:16 AM 40.0211 -74.7581 47° Northeast 450 518 33,000  Level New York Center
Sat 10:52:16 AM 40.0875 -74.6397 54° Northeast 445 512 33,000  Level New York Center
Sat 10:53:17 AM 40.1533 -74.4750 62° Northeast 450 518 33,000  Level New York Center
Sat 10:54:18 AM 40.2058 -74.3258 65° Northeast 455 524 33,000  Level New York Center
Sat 10:56:04 AM 40.3050 -74.0508 65° Northeast 497 572 33,000 -361 Level Boston Center
Sat 10:57:04 AM 40.3611 -73.9053 63° Northeast 469 540 32,000 -1,900 Descending Boston Center
Sat 10:58:04 AM 40.4131 -73.7564 65° Northeast 454 522 29,200 -2,500 Descending Boston Center
Sat 10:59:04 AM 40.4647 -73.6047 66° East 448 516 27,000 -1,100 Descending Boston Center
Sat 11:00:04 AM 40.5139 -73.4664 65° Northeast 432 497 27,000  Level Boston Center
Sat 11:01:04 AM 40.5650 -73.3253 64° Northeast 427 491 27,000 -100 Level Boston Center
Sat 11:02:04 AM 40.6142 -73.1864 65° Northeast 421 484 26,800 -600 Descending Boston Center
Sat 11:03:04 AM 40.6650 -73.0475 64° Northeast 421 484 25,800 -1,000 Descending Boston Center
Sat 11:04:04 AM 40.7114 -72.9111 66° East 416 479 24,800 -950 Descending Boston Center
Sat 11:05:04 AM 40.7556 -72.7908 64° Northeast 411 473 23,900 -950 Descending Boston Center
Sat 11:06:04 AM 40.7997 -72.6622 66° East 397 457 22,900 -1,400 Descending Boston Center
Sat 11:07:04 AM 40.8436 -72.5333 66° East 387 445 21,100 -1,850 Descending Boston Center
Sat 11:08:04 AM 40.8875 -72.4100 65° Northeast 371 427 19,200 -1,922 Descending Boston Center
Sat 11:08:47 AM 40.9186 -72.3219 65° Northeast 370 426 17,800 -1,600 Descending Boston Center
Sat 11:09:04 AM 40.9289 -72.2861 69° East 371 427 17,600 -2,372 Descending Boston Center
Sat 11:09:30 AM 40.9497 -72.2231 66° East 373 429 16,100 -2,300 Descending Boston Center
Sat 11:10:04 AM 40.9706 -72.1625 65° Northeast 366 421 15,300 -2,000 Descending Boston Center
Sat 11:10:36 AM 40.9953 -72.0964 64° Northeast 356 410 13,900 -2,000 Descending Boston Center
Sat 11:11:04 AM 41.0075 -72.0467 72° East 350 403 13,300 -1,869 Descending Boston Center
Sat 11:11:37 AM 41.0322 -71.9806 64° Northeast 344 396 12,000 -2,000 Descending Boston Center
Sat 11:12:04 AM 41.0467 -71.9336 68° East 344 396 11,300 -885 Descending Boston Center
Sat 11:12:38 AM 41.0819 -71.8756 51° Northeast 325 374 11,100 -200 Descending Boston Center
Sat 11:13:04 AM 41.1025 -71.8450 48° Northeast 323 372 11,100 -590 Level Boston Center
Sat 11:13:39 AM 41.1397 -71.7842 51° Northeast 314 361 10,500 -1,133 Descending Boston Center
Sat 11:14:34 AM 41.1872 -71.7092 50° Northeast 296 341 9,400 -1,397 Descending Boston Center
Sat 11:15:35 AM 41.2344 -71.6286 52° Northeast 283 326 7,800 -1,180 Descending Boston Center
Sat 11:16:36 AM 41.2861 -71.5478 50° Northeast 279 321 7,000 -344 Descending Boston Center
Sat 11:17:37 AM 41.3375 -71.4642 51° Northeast 277 319 7,100 47 Climbing Boston Center
Sat 11:18:44 AM 41.3972 -71.3969 40° Northeast 277 319 7,100 -47 Level Boston Center
Sat 11:19:45 AM 41.4744 -71.3928 North 270 311 7,000 -689 Descending Boston Center
Sat 11:20:46 AM 41.5472 -71.3944 359° North 251 289 5,700 -934 Descending Boston Center
Sat 11:21:47 AM 41.6117 -71.3711 15° North 244 281 5,100 -344 Descending Boston Center
Sat 11:22:48 AM 41.6675 -71.3314 28° Northeast 229 264 5,000 -246 Descending Boston Center
Sat 11:23:49 AM 41.7192 -71.2886 32° Northeast 221 254 4,600 -787 Descending Boston Center
Sat 11:24:50 AM 41.7772 -71.2597 20° North 214 246 3,400 -1,180 Descending Boston Center

Login

Don't have an account? Register now (free) for customized features, flight alerts, and more!